AirNav   Everest Fuels
 
 1011 users online  

6TN1 Weakleys Field Airport
Pleasantview, Tennessee, USA

GOING TO PLEASANTVIEW?


FAA INFORMATION EFFECTIVE 10 SEPTEMBER 2020

Location

FAA Identifier: 6TN1
Lat/Long: 36-24-19.0000N 087-04-56.0000W
36-24.316667N 087-04.933333W
36.4052778,-87.0822222
(estimated)
Elevation: 705 ft. / 215 m (estimated)
Variation: 01W (1990)
From city: 2 miles W of PLEASANTVIEW, TN
Time zone: UTC -5 (UTC -6 during Standard Time)
Zip code: 37146

Airport Operations

Airport use: Private use. Permission required prior to landing
Activation date: 01/1994
Control tower: no
ARTCC: MEMPHIS CENTER
FSS: NASHVILLE FLIGHT SERVICE STATION
Attendance: DAWN-DUSK
Wind indicator: yes
Segmented circle: no

Airport Communications

WX AWOS-3 at M91 (11 nm NE): 120.675 (615-384-8206)
WX AWOS-3 at JWN (16 nm SE): 127.075 (615-350-6222)

Nearby radio navigation aids

VOR radial/distance  VOR name  Freq  Var
CKVr130/20.6CLARKSVILLE VOR/DME110.6001W
BNAr312/25.1NASHVILLE VORTAC114.1002W

Airport Services

Runway Information

Runway 18/36

Dimensions: 3370 x 60 ft. / 1027 x 18 m
Surface: turf
Runway edge markings: MKD WITH WHITE REFLECTORS EVERY 200 FT.
RUNWAY 18  RUNWAY 36
Traffic pattern: leftleft
Displaced threshold: 300 ft.no
Markings: NSTD
Obstructions: 15 ft. road, 20 ft. from runwaynone

Airport Ownership and Management from official FAA records

Ownership: Privately-owned
Owner: WEAKLEY'S FIELD, INC.
1255 OAKLAWN ROAD
CHAPMANSBORO, TN 37035
Phone 615-746-5236
Manager: BYRON WEAKLEY
1255 OAKLAWN ROAD
CHAPMANSBORO, TN 37035
Phone 615-218-3316

Airport Operational Statistics

Aircraft based on the field: 5
Single engine airplanes: 4
Ultralights: 1
    

Additional Remarks

FOR CD CTC NASHVILLE APCH AT 615-695-4522.

Instrument Procedures

There are no published instrument procedures at 6TN1.

Some nearby airports with instrument procedures:

M91 - Springfield Robertson County Airport (11 nm NE)
KJWN - John C Tune Airport (16 nm SE)
KCKV - Outlaw Field Airport (21 nm NW)
KEOD - Sabre Army Airfield (Fort Campbell) (22 nm NW)
M02 - Dickson Municipal Airport (24 nm SW)
 
Loc | Ops | Rwys | IFR | FBO | Links
Com | Nav | Svcs | Stats | Notes
Area around 6TN1 (Weakleys Field Airport)
 
Road maps at: MapQuest Bing Google
 
Aerial photo
No photo
 
Sectional chart

 
Airport distance calculator
Flying to Weakleys Field Airport? Find the distance to fly.

From to 6TN1

Sunrise and sunset
Times for 22-Sep-2020
 Local
(UTC-5)
 Zulu
(UTC)
Morning civil twilight06:1211:12
Sunrise06:3811:38
Sunset18:4323:43
Evening civil twilight19:0900:09

Current date and time
Zulu (UTC)  22-Sep-2020 12:20:14
Local (UTC-5)  22-Sep-2020 07:20:14
 
METAR
KM91 
11nm NE 
221155Z AUTO 16004KT 10SM CLR 10/10 A3027 RMK A01 P0001
KJWN 
16nm SE 
221155Z AUTO 00000KT 10SM CLR 10/10 A3027 RMK A01
KCKV 
21nm NW 
221152Z AUTO 12003KT 5SM BR CLR 10/10 A3027 RMK AO2 SLP250 T01000100 10117 20094 53005
KEOD 
22nm NW 
221158Z AUTO 00000KT 10SM CLR 10/09 A3028 RMK AO2 SLP256 T00980087 10115 20092 53007
TAF
NOTAMs
Click for the latest NOTAMs
NOTAMs are issued by the DoD/FAA and will open in a separate window not controlled by AirNav.

 

 
 

Would you like to see your business listed on this page?

 If your business provides an interesting product or service to pilots, flight crews, aircraft, or users of the Weakleys Field Airport, you should consider listing it here.  To start the listing process, click on the button below
 
Add a business
 

Other Pages about Weakleys Field Airport

Update a link
 
Copyright © AirNav, LLC. All rights reserved. Privacy Policy  Contact